Time;durP1;ratioP1;P1;durP2;ratioP2;P2;SDS_P1;SDS_P2;PMS_P1;PMS_P2;Temp;Humidity;BMP_temperature;BMP_pressure;BME280_temperature;BME280_humidity;BME280_pressure;Samples;Min_cycle;Max_cycle;Signal;HPM_P1;HPM_P2
2023/06/21 00:01:38;;;;;;;23.80;7.82;;;;;;;;;;4960988;28;20267;-63
2023/06/21 00:04:08;;;;;;;27.63;8.00;;;;;;;;;;4945821;28;20049;-63
2023/06/21 00:06:34;;;;;;;31.25;8.25;;;;;;;;;;4961585;28;20499;-63
2023/06/21 00:09:04;;;;;;;25.05;7.30;;;;;;;;;;4962874;28;20050;-63
2023/06/21 00:11:31;;;;;;;28.75;8.63;;;;;;;;;;4959279;28;20157;-66
2023/06/21 00:13:57;;;;;;;24.65;8.32;;;;;;;;;;4960859;28;20113;-65
2023/06/21 00:16:24;;;;;;;28.33;8.23;;;;;;;;;;4961401;28;20165;-65
2023/06/21 00:18:50;;;;;;;28.90;8.35;;;;;;;;;;4961157;28;20060;-65
2023/06/21 00:21:16;;;;;;;26.85;8.48;;;;;;;;;;4958981;28;20271;-63
2023/06/21 00:23:43;;;;;;;32.42;8.77;;;;;;;;;;4962260;28;20402;-65
2023/06/21 00:26:09;;;;;;;27.10;8.60;;;;;;;;;;4957693;28;20038;-65
2023/06/21 00:28:35;;;;;;;26.05;7.88;;;;;;;;;;4963953;28;20137;-63
2023/06/21 00:31:03;;;;;;;28.10;8.80;;;;;;;;;;4961879;28;20042;-64
2023/06/21 00:33:29;;;;;;;25.02;8.75;;;;;;;;;;4943597;28;20034;-63
2023/06/21 00:35:55;;;;;;;24.17;8.23;;;;;;;;;;4948514;28;20058;-64
2023/06/21 00:38:21;;;;;;;24.25;7.97;;;;;;;;;;4957882;28;20449;-64
2023/06/21 00:40:49;;;;;;;31.42;8.70;;;;;;;;;;4967047;28;20034;-64
2023/06/21 00:43:16;;;;;;;23.88;8.20;;;;;;;;;;4958081;28;20038;-64
2023/06/21 00:45:48;;;;;;;28.25;8.52;;;;;;;;;;4963218;28;20444;-64
2023/06/21 00:48:14;;;;;;;26.15;7.97;;;;;;;;;;4959300;28;20026;-63
2023/06/21 00:50:41;;;;;;;25.13;8.45;;;;;;;;;;4968774;28;20133;-63
2023/06/21 00:53:08;;;;;;;26.67;8.25;;;;;;;;;;4960222;28;20492;-65
2023/06/21 00:55:34;;;;;;;24.60;8.05;;;;;;;;;;4963178;28;20378;-65
2023/06/21 00:58:00;;;;;;;27.83;8.30;;;;;;;;;;4963792;28;20030;-65
2023/06/21 01:00:26;;;;;;;33.33;9.40;;;;;;;;;;4956046;28;20655;-64
2023/06/21 01:02:56;;;;;;;30.15;9.20;;;;;;;;;;4962072;28;20038;-63
2023/06/21 01:05:23;;;;;;;28.23;8.02;;;;;;;;;;4959367;28;20210;-62
2023/06/21 01:08:08;;;;;;;24.23;7.97;;;;;;;;;;4947594;28;20022;-63
2023/06/21 01:10:53;;;;;;;25.95;9.02;;;;;;;;;;4962944;28;20603;-63
2023/06/21 01:13:22;;;;;;;27.98;9.07;;;;;;;;;;4957008;28;20041;-63
2023/06/21 01:15:50;;;;;;;26.30;8.77;;;;;;;;;;4962353;28;20046;-63
2023/06/21 01:18:17;;;;;;;28.55;9.15;;;;;;;;;;4937927;28;20130;-63
2023/06/21 01:20:48;;;;;;;29.42;8.70;;;;;;;;;;4963698;28;20113;-64
2023/06/21 01:23:14;;;;;;;27.52;8.38;;;;;;;;;;4958869;28;20053;-64
2023/06/21 01:26:07;;;;;;;27.30;9.40;;;;;;;;;;4962599;28;20038;-65
2023/06/21 01:28:33;;;;;;;26.40;8.68;;;;;;;;;;4936756;28;20089;-64
2023/06/21 01:31:01;;;;;;;27.63;8.90;;;;;;;;;;4965154;28;20675;-63
2023/06/21 01:33:28;;;;;;;29.73;8.88;;;;;;;;;;4964275;28;22316;-63
2023/06/21 01:35:55;;;;;;;27.95;8.48;;;;;;;;;;4962500;28;20560;-63
2023/06/21 01:38:23;;;;;;;34.13;9.25;;;;;;;;;;4963425;28;20033;-65
2023/06/21 01:40:50;;;;;;;29.05;8.48;;;;;;;;;;4963885;28;20030;-62
2023/06/21 01:43:17;;;;;;;24.75;8.35;;;;;;;;;;4962558;28;20266;-63
2023/06/21 01:45:43;;;;;;;27.38;9.00;;;;;;;;;;4966379;28;20034;-64
2023/06/21 01:48:10;;;;;;;25.10;8.57;;;;;;;;;;4961648;28;20384;-63
2023/06/21 01:50:36;;;;;;;25.60;8.57;;;;;;;;;;4965668;28;20446;-63
2023/06/21 01:53:04;;;;;;;25.88;8.98;;;;;;;;;;4948632;28;20417;-63
2023/06/21 01:55:31;;;;;;;25.85;8.35;;;;;;;;;;4960983;28;20535;-63
2023/06/21 01:57:58;;;;;;;27.52;8.68;;;;;;;;;;4965687;28;20038;-63
2023/06/21 02:00:26;;;;;;;27.80;8.73;;;;;;;;;;4961604;28;20026;-63
2023/06/21 02:02:56;;;;;;;27.20;8.90;;;;;;;;;;4963824;28;20518;-63
2023/06/21 02:05:23;;;;;;;32.42;8.90;;;;;;;;;;4963048;28;20366;-63
2023/06/21 02:07:50;;;;;;;32.03;9.63;;;;;;;;;;4965839;28;20452;-63
2023/06/21 02:10:18;;;;;;;28.70;8.85;;;;;;;;;;4961699;28;20040;-63
2023/06/21 02:12:47;;;;;;;31.30;9.20;;;;;;;;;;4967477;28;20036;-63
2023/06/21 02:15:14;;;;;;;30.17;9.32;;;;;;;;;;4962608;28;20319;-63
2023/06/21 02:17:40;;;;;;;30.30;10.02;;;;;;;;;;4964937;28;20354;-63
2023/06/21 02:20:13;;;;;;;25.35;8.38;;;;;;;;;;4964561;28;20034;-63
2023/06/21 02:22:40;;;;;;;29.92;9.07;;;;;;;;;;4968109;28;20434;-63
2023/06/21 02:25:06;;;;;;;23.35;8.15;;;;;;;;;;4948576;28;20105;-63
2023/06/21 02:27:33;;;;;;;27.17;8.77;;;;;;;;;;4946174;28;20417;-63
2023/06/21 02:29:59;;;;;;;30.75;9.55;;;;;;;;;;4949680;28;20473;-63
2023/06/21 02:32:25;;;;;;;22.90;8.38;;;;;;;;;;4946930;28;20835;-64
2023/06/21 02:34:51;;;;;;;26.88;8.85;;;;;;;;;;4965605;28;20571;-63
2023/06/21 02:37:17;;;;;;;26.52;8.80;;;;;;;;;;4958569;28;20049;-64
2023/06/21 02:39:43;;;;;;;26.20;7.97;;;;;;;;;;4963845;28;20097;-63
2023/06/21 02:42:09;;;;;;;26.98;8.60;;;;;;;;;;4946601;28;20125;-64
2023/06/21 02:44:35;;;;;;;28.58;8.68;;;;;;;;;;4964755;28;20630;-63
2023/06/21 02:47:02;;;;;;;27.65;9.38;;;;;;;;;;4963506;28;20022;-63
2023/06/21 02:49:28;;;;;;;27.45;8.10;;;;;;;;;;4961678;28;20903;-63
2023/06/21 02:51:54;;;;;;;26.27;8.77;;;;;;;;;;4963655;28;20862;-63
2023/06/21 02:54:20;;;;;;;26.85;8.68;;;;;;;;;;4962038;28;20432;-63
2023/06/21 02:56:46;;;;;;;25.05;8.00;;;;;;;;;;4964968;28;20473;-63
2023/06/21 02:59:12;;;;;;;24.02;7.53;;;;;;;;;;4944042;28;20563;-63
2023/06/21 03:01:38;;;;;;;28.50;8.70;;;;;;;;;;4963159;28;20038;-64
2023/06/21 03:04:05;;;;;;;24.95;8.65;;;;;;;;;;4962905;28;20113;-63
2023/06/21 03:06:33;;;;;;;31.60;9.32;;;;;;;;;;4959719;28;20433;-63
2023/06/21 03:09:00;;;;;;;29.10;9.00;;;;;;;;;;4964157;28;20058;-63
2023/06/21 03:11:26;;;;;;;29.48;8.98;;;;;;;;;;4949458;28;20543;-64
2023/06/21 03:13:52;;;;;;;29.58;8.93;;;;;;;;;;4951977;28;20475;-63
2023/06/21 03:16:20;;;;;;;28.05;9.27;;;;;;;;;;4944433;28;20507;-63
2023/06/21 03:18:46;;;;;;;32.85;9.50;;;;;;;;;;4962175;28;20022;-63
2023/06/21 03:21:12;;;;;;;29.30;9.30;;;;;;;;;;4962740;28;20119;-63
2023/06/21 03:23:38;;;;;;;30.63;9.00;;;;;;;;;;4949786;28;20034;-63
2023/06/21 03:26:04;;;;;;;29.15;8.77;;;;;;;;;;4965484;28;20042;-63
2023/06/21 03:28:30;;;;;;;27.95;8.30;;;;;;;;;;4960083;28;20117;-63
2023/06/21 03:30:57;;;;;;;30.48;9.15;;;;;;;;;;4961577;28;20034;-63
2023/06/21 03:33:24;;;;;;;26.65;9.38;;;;;;;;;;4956600;28;20682;-64
2023/06/21 03:35:50;;;;;;;29.35;8.90;;;;;;;;;;4947141;28;20116;-63
2023/06/21 03:38:17;;;;;;;26.90;8.75;;;;;;;;;;4941413;28;20304;-63
2023/06/21 03:40:44;;;;;;;25.70;7.93;;;;;;;;;;4963182;28;20038;-63
2023/06/21 03:43:10;;;;;;;29.33;8.52;;;;;;;;;;4958350;28;20761;-66
2023/06/21 03:45:36;;;;;;;33.35;8.88;;;;;;;;;;4964674;28;20449;-63
2023/06/21 03:48:05;;;;;;;31.20;8.98;;;;;;;;;;4961867;28;20651;-62
2023/06/21 03:50:32;;;;;;;25.73;8.27;;;;;;;;;;4959583;28;20859;-63
2023/06/21 03:52:58;;;;;;;28.42;8.52;;;;;;;;;;4963671;28;20089;-64
2023/06/21 03:55:24;;;;;;;24.77;8.50;;;;;;;;;;4960832;28;20049;-65
2023/06/21 03:57:50;;;;;;;30.00;8.73;;;;;;;;;;4962010;28;20108;-64
2023/06/21 04:00:17;;;;;;;28.25;8.45;;;;;;;;;;4960035;28;20109;-63
2023/06/21 04:02:44;;;;;;;23.50;8.07;;;;;;;;;;4944066;28;20529;-63
2023/06/21 04:05:10;;;;;;;21.70;8.02;;;;;;;;;;4957020;28;20463;-63
2023/06/21 04:07:39;;;;;;;21.58;7.57;;;;;;;;;;4943408;28;20035;-63
2023/06/21 04:10:06;;;;;;;25.38;7.78;;;;;;;;;;4964673;28;20536;-63
2023/06/21 04:12:33;;;;;;;19.90;6.95;;;;;;;;;;4963519;28;20049;-64
2023/06/21 04:15:03;;;;;;;23.65;6.93;;;;;;;;;;4960989;28;20177;-63
2023/06/21 04:17:29;;;;;;;22.52;7.57;;;;;;;;;;4958964;28;20137;-66
2023/06/21 04:19:56;;;;;;;24.67;8.07;;;;;;;;;;4961561;28;20109;-64
2023/06/21 04:22:24;;;;;;;23.88;8.00;;;;;;;;;;4960266;28;20057;-64
2023/06/21 04:24:51;;;;;;;28.90;8.93;;;;;;;;;;4962467;28;20026;-64
2023/06/21 04:27:17;;;;;;;27.73;8.38;;;;;;;;;;4957766;28;20315;-64
2023/06/21 04:29:46;;;;;;;21.00;7.38;;;;;;;;;;4960402;28;20035;-63
2023/06/21 04:32:12;;;;;;;27.85;8.18;;;;;;;;;;4956835;28;20069;-64
2023/06/21 04:34:43;;;;;;;23.33;7.65;;;;;;;;;;4962203;28;20027;-64
2023/06/21 04:37:09;;;;;;;21.90;7.78;;;;;;;;;;4959095;28;20046;-64
2023/06/21 04:39:35;;;;;;;26.88;8.30;;;;;;;;;;4961867;28;20034;-64
2023/06/21 04:42:02;;;;;;;22.40;7.53;;;;;;;;;;4963852;28;20429;-64
2023/06/21 04:44:28;;;;;;;19.98;7.20;;;;;;;;;;4943874;28;20415;-64
2023/06/21 04:46:55;;;;;;;23.83;7.47;;;;;;;;;;4962194;28;20125;-64
2023/06/21 04:49:25;;;;;;;23.00;7.70;;;;;;;;;;4959385;28;20426;-64
2023/06/21 04:51:52;;;;;;;22.13;7.35;;;;;;;;;;4961052;28;20030;-64
2023/06/21 04:54:20;;;;;;;20.70;7.28;;;;;;;;;;4945716;28;20649;-66
2023/06/21 04:56:47;;;;;;;23.08;7.45;;;;;;;;;;4961374;28;20141;-64
2023/06/21 04:59:13;;;;;;;22.00;7.45;;;;;;;;;;4957172;28;20037;-64
2023/06/21 05:01:39;;;;;;;19.25;6.07;;;;;;;;;;4947819;28;20797;-64
2023/06/21 05:04:05;;;;;;;23.42;7.18;;;;;;;;;;4965483;28;20116;-64
2023/06/21 05:06:31;;;;;;;22.23;6.63;;;;;;;;;;4961678;28;20466;-64
2023/06/21 05:08:57;;;;;;;21.40;6.07;;;;;;;;;;4967849;28;20449;-64
2023/06/21 05:11:23;;;;;;;21.63;6.95;;;;;;;;;;4962169;28;20307;-64
2023/06/21 05:13:49;;;;;;;18.67;6.82;;;;;;;;;;4968803;28;20046;-64
2023/06/21 05:16:16;;;;;;;19.38;6.18;;;;;;;;;;4964148;28;20039;-64
2023/06/21 05:18:42;;;;;;;15.10;5.13;;;;;;;;;;4952673;28;20041;-64
2023/06/21 05:21:08;;;;;;;21.98;6.32;;;;;;;;;;4962167;28;20023;-64
2023/06/21 05:23:34;;;;;;;18.60;5.90;;;;;;;;;;4966778;28;20492;-64
2023/06/21 05:26:01;;;;;;;16.27;5.85;;;;;;;;;;4961850;28;21086;-65
2023/06/21 05:28:27;;;;;;;18.55;6.03;;;;;;;;;;4966718;28;20034;-63
2023/06/21 05:30:53;;;;;;;18.75;6.05;;;;;;;;;;4965865;28;20327;-64
2023/06/21 05:33:19;;;;;;;18.20;5.63;;;;;;;;;;4960700;28;20046;-64
2023/06/21 05:35:46;;;;;;;20.52;5.43;;;;;;;;;;4951118;28;20031;-64
2023/06/21 05:38:12;;;;;;;16.30;5.47;;;;;;;;;;4963467;28;20547;-64
2023/06/21 05:40:38;;;;;;;17.17;5.13;;;;;;;;;;4966643;28;20064;-63
2023/06/21 05:43:05;;;;;;;22.83;5.88;;;;;;;;;;4965343;28;20030;-64
2023/06/21 05:45:31;;;;;;;16.33;5.80;;;;;;;;;;4961916;28;20030;-64
2023/06/21 05:47:58;;;;;;;15.93;4.90;;;;;;;;;;4963688;28;20034;-64
2023/06/21 05:50:24;;;;;;;17.15;4.97;;;;;;;;;;4960988;28;20030;-64
2023/06/21 05:52:51;;;;;;;16.65;4.85;;;;;;;;;;4964945;28;20072;-64
2023/06/21 05:55:17;;;;;;;21.15;5.72;;;;;;;;;;4962321;28;20125;-65
2023/06/21 05:57:43;;;;;;;18.02;4.85;;;;;;;;;;4966148;28;20036;-66
2023/06/21 06:00:09;;;;;;;16.65;5.07;;;;;;;;;;4944871;28;20014;-63
2023/06/21 06:02:36;;;;;;;16.05;4.57;;;;;;;;;;4963487;28;20385;-63
2023/06/21 06:05:02;;;;;;;16.13;5.53;;;;;;;;;;4966111;28;20116;-64
2023/06/21 06:07:28;;;;;;;21.35;5.65;;;;;;;;;;4961582;28;20042;-64
2023/06/21 06:09:55;;;;;;;15.50;4.93;;;;;;;;;;4964625;28;20153;-64
2023/06/21 06:12:21;;;;;;;16.08;4.65;;;;;;;;;;4962059;28;20073;-64
2023/06/21 06:14:47;;;;;;;15.52;4.82;;;;;;;;;;4963554;28;20531;-65
2023/06/21 06:17:14;;;;;;;20.27;5.22;;;;;;;;;;4960839;28;20112;-63
2023/06/21 06:19:40;;;;;;;14.95;4.50;;;;;;;;;;4964510;28;20799;-63
2023/06/21 06:22:06;;;;;;;25.25;6.40;;;;;;;;;;4965877;28;20309;-64
2023/06/21 06:24:32;;;;;;;18.13;5.90;;;;;;;;;;4961891;28;20771;-64
2023/06/21 06:26:59;;;;;;;23.52;6.10;;;;;;;;;;4966240;28;20046;-64
2023/06/21 06:29:25;;;;;;;18.25;5.78;;;;;;;;;;4958045;28;20029;-64
2023/06/21 06:31:51;;;;;;;20.92;5.85;;;;;;;;;;4966027;28;20783;-64
2023/06/21 06:34:17;;;;;;;28.08;6.13;;;;;;;;;;4963408;28;20508;-63
2023/06/21 06:36:44;;;;;;;24.33;6.07;;;;;;;;;;4961211;28;20068;-63
2023/06/21 06:39:10;;;;;;;26.45;6.80;;;;;;;;;;4960817;28;20054;-65
2023/06/21 06:41:36;;;;;;;23.73;6.80;;;;;;;;;;4965062;28;20026;-64
2023/06/21 06:44:02;;;;;;;22.50;6.35;;;;;;;;;;4966443;28;20030;-63
2023/06/21 06:46:29;;;;;;;18.25;5.90;;;;;;;;;;4964314;28;20042;-65
2023/06/21 06:48:55;;;;;;;23.50;6.35;;;;;;;;;;4949079;28;20030;-64
2023/06/21 06:51:21;;;;;;;28.17;7.05;;;;;;;;;;4959031;28;20049;-64
2023/06/21 06:53:50;;;;;;;30.52;7.15;;;;;;;;;;4965379;28;20135;-65
2023/06/21 06:56:16;;;;;;;19.50;6.25;;;;;;;;;;4960287;28;20822;-65
2023/06/21 06:58:43;;;;;;;22.63;5.95;;;;;;;;;;4951398;28;20034;-65
2023/06/21 07:01:10;;;;;;;21.40;5.80;;;;;;;;;;4961475;28;20169;-65
2023/06/21 07:03:36;;;;;;;20.88;5.18;;;;;;;;;;4964066;28;20035;-63
2023/06/21 07:06:02;;;;;;;18.13;5.20;;;;;;;;;;4964419;28;20581;-66
2023/06/21 07:08:28;;;;;;;19.40;5.82;;;;;;;;;;4960162;28;20954;-63
2023/06/21 07:10:54;;;;;;;23.33;5.53;;;;;;;;;;4962891;28;20556;-64
2023/06/21 07:13:23;;;;;;;21.30;6.22;;;;;;;;;;4960911;28;20505;-66
2023/06/21 07:15:49;;;;;;;19.10;5.95;;;;;;;;;;4960684;28;20077;-69
2023/06/21 07:18:15;;;;;;;19.67;5.85;;;;;;;;;;4960594;28;20540;-65
2023/06/21 07:20:41;;;;;;;20.38;5.65;;;;;;;;;;4964420;28;20653;-65
2023/06/21 07:23:08;;;;;;;19.58;6.00;;;;;;;;;;4963689;28;20030;-65
2023/06/21 07:25:34;;;;;;;22.83;5.90;;;;;;;;;;4951597;28;20034;-65
2023/06/21 07:28:00;;;;;;;17.75;5.38;;;;;;;;;;4949184;28;20065;-65
2023/06/21 07:30:27;;;;;;;22.83;5.88;;;;;;;;;;4960413;28;20066;-65
2023/06/21 07:32:53;;;;;;;20.02;6.10;;;;;;;;;;4947384;28;20330;-65
2023/06/21 07:35:19;;;;;;;18.58;5.68;;;;;;;;;;4944583;28;20621;-65
2023/06/21 07:37:46;;;;;;;20.17;5.53;;;;;;;;;;4963906;28;20026;-66
2023/06/21 07:40:13;;;;;;;18.17;5.72;;;;;;;;;;4960265;28;20114;-64
2023/06/21 07:42:39;;;;;;;16.58;5.32;;;;;;;;;;4962687;28;20056;-64
2023/06/21 07:45:06;;;;;;;20.70;5.60;;;;;;;;;;4963146;28;20322;-64
2023/06/21 07:47:33;;;;;;;20.92;6.40;;;;;;;;;;4963334;28;20026;-64
2023/06/21 07:49:59;;;;;;;17.35;5.38;;;;;;;;;;4964332;28;20058;-64
2023/06/21 07:52:26;;;;;;;27.52;6.25;;;;;;;;;;4949070;28;20046;-64
2023/06/21 07:54:52;;;;;;;20.70;6.03;;;;;;;;;;4963039;28;20042;-64
2023/06/21 07:57:18;;;;;;;18.42;5.60;;;;;;;;;;4960648;28;20057;-64
2023/06/21 07:59:45;;;;;;;18.77;5.53;;;;;;;;;;4963101;28;20378;-64
2023/06/21 08:02:17;;;;;;;16.60;5.10;;;;;;;;;;4960466;28;20133;-66
2023/06/21 08:04:44;;;;;;;25.20;6.07;;;;;;;;;;4962609;28;20509;-64
2023/06/21 08:07:10;;;;;;;21.70;6.10;;;;;;;;;;4958932;28;20105;-63
2023/06/21 08:09:36;;;;;;;19.77;6.07;;;;;;;;;;4960888;28;20440;-64
2023/06/21 08:12:02;;;;;;;18.02;5.95;;;;;;;;;;4958789;28;20031;-64
2023/06/21 08:14:28;;;;;;;18.67;5.55;;;;;;;;;;4955405;28;20700;-64
2023/06/21 08:16:55;;;;;;;22.15;6.07;;;;;;;;;;4959031;28;20061;-64
2023/06/21 08:19:21;;;;;;;24.45;5.88;;;;;;;;;;4952619;28;20038;-64
2023/06/21 08:21:47;;;;;;;18.98;5.78;;;;;;;;;;4958780;28;20251;-64
2023/06/21 08:24:13;;;;;;;18.85;6.18;;;;;;;;;;4954394;28;21081;-64
2023/06/21 08:26:39;;;;;;;16.65;5.60;;;;;;;;;;4957916;28;20033;-64
2023/06/21 08:29:05;;;;;;;20.08;5.85;;;;;;;;;;4956334;28;20941;-64
2023/06/21 08:31:32;;;;;;;27.27;6.32;;;;;;;;;;4953583;28;20491;-65
2023/06/21 08:33:58;;;;;;;21.20;6.18;;;;;;;;;;4960830;28;21100;-65
2023/06/21 08:36:26;;;;;;;19.48;6.00;;;;;;;;;;4956124;28;20044;-64
2023/06/21 08:38:52;;;;;;;22.90;6.13;;;;;;;;;;4949854;28;20374;-63
2023/06/21 08:41:18;;;;;;;19.38;5.65;;;;;;;;;;4945591;28;20026;-64
2023/06/21 08:43:44;;;;;;;23.55;5.72;;;;;;;;;;4963522;28;20265;-64
2023/06/21 08:46:11;;;;;;;21.83;6.35;;;;;;;;;;4944527;28;20373;-64
2023/06/21 08:48:38;;;;;;;18.92;6.30;;;;;;;;;;4963818;28;20272;-64
2023/06/21 08:51:05;;;;;;;26.00;6.72;;;;;;;;;;4963854;28;20035;-63
2023/06/21 08:53:44;;;;;;;24.30;6.60;;;;;;;;;;4959306;28;20621;-63
2023/06/21 08:56:12;;;;;;;27.20;7.20;;;;;;;;;;4958834;28;20030;-62
2023/06/21 08:58:46;;;;;;;22.13;6.28;;;;;;;;;;4961531;28;20034;-63
2023/06/21 09:01:13;;;;;;;22.58;6.60;;;;;;;;;;4956763;28;20135;-62
2023/06/21 09:03:49;;;;;;;24.50;6.38;;;;;;;;;;4963597;28;20037;-63
2023/06/21 09:06:19;;;;;;;24.17;6.50;;;;;;;;;;4960764;28;20041;-62
2023/06/21 09:08:46;;;;;;;22.40;6.15;;;;;;;;;;4962857;28;20049;-62
2023/06/21 09:11:14;;;;;;;21.00;6.70;;;;;;;;;;4956685;28;20464;-63
2023/06/21 09:13:41;;;;;;;23.20;6.25;;;;;;;;;;4964813;28;20038;-63
2023/06/21 09:16:08;;;;;;;21.77;6.90;;;;;;;;;;4963308;28;20076;-63
2023/06/21 09:18:39;;;;;;;22.05;5.78;;;;;;;;;;4947876;28;20469;-63
2023/06/21 09:21:06;;;;;;;22.23;5.97;;;;;;;;;;4961397;28;20031;-64
2023/06/21 09:23:32;;;;;;;25.63;6.63;;;;;;;;;;4960550;28;20134;-63
2023/06/21 09:25:58;;;;;;;22.45;6.10;;;;;;;;;;4962461;28;20530;-63
2023/06/21 09:28:25;;;;;;;21.55;6.32;;;;;;;;;;4960400;28;20982;-63
2023/06/21 09:30:51;;;;;;;25.55;6.25;;;;;;;;;;4964176;28;20079;-64
2023/06/21 09:33:17;;;;;;;26.60;6.85;;;;;;;;;;4957197;28;20283;-61
2023/06/21 09:35:44;;;;;;;19.55;6.53;;;;;;;;;;4964096;28;20034;-61
2023/06/21 09:38:24;;;;;;;24.90;6.25;;;;;;;;;;4961620;28;20057;-62
2023/06/21 09:40:50;;;;;;;20.17;5.93;;;;;;;;;;4961822;28;20124;-63
2023/06/21 09:43:17;;;;;;;22.60;6.78;;;;;;;;;;4959802;28;20825;-63
2023/06/21 09:45:43;;;;;;;23.52;6.28;;;;;;;;;;4962621;28;20037;-62
2023/06/21 09:48:15;;;;;;;22.45;6.47;;;;;;;;;;4958252;28;20177;-62
2023/06/21 09:50:43;;;;;;;17.13;6.38;;;;;;;;;;4963688;28;20136;-62
2023/06/21 09:53:12;;;;;;;21.10;6.15;;;;;;;;;;4959886;28;20547;-63
2023/06/21 09:55:44;;;;;;;22.45;6.40;;;;;;;;;;4962580;28;20072;-63
2023/06/21 09:58:11;;;;;;;27.40;6.28;;;;;;;;;;4957467;28;20806;-61
2023/06/21 10:00:38;;;;;;;17.30;6.45;;;;;;;;;;4964043;28;20014;-61
2023/06/21 10:03:04;;;;;;;24.67;6.95;;;;;;;;;;4964107;28;20030;-63
2023/06/21 10:05:30;;;;;;;23.58;6.95;;;;;;;;;;4958747;28;20526;-64
2023/06/21 10:07:57;;;;;;;22.58;6.88;;;;;;;;;;4959971;28;20169;-62
2023/06/21 10:10:23;;;;;;;19.65;6.68;;;;;;;;;;4963171;28;20480;-64
2023/06/21 10:12:53;;;;;;;29.65;7.45;;;;;;;;;;4946565;28;20516;-63
2023/06/21 10:15:19;;;;;;;20.52;6.95;;;;;;;;;;4960006;28;20046;-63
2023/06/21 10:17:48;;;;;;;25.48;7.25;;;;;;;;;;4962082;28;20081;-63
2023/06/21 10:20:15;;;;;;;26.08;7.00;;;;;;;;;;4960590;28;20366;-63
2023/06/21 10:22:45;;;;;;;19.45;6.45;;;;;;;;;;4960716;28;20507;-63
2023/06/21 10:25:11;;;;;;;25.80;6.68;;;;;;;;;;4960425;28;20466;-63
2023/06/21 10:27:38;;;;;;;23.67;7.50;;;;;;;;;;4961398;28;20030;-62
2023/06/21 10:30:05;;;;;;;19.50;6.63;;;;;;;;;;4961234;28;20322;-62
2023/06/21 10:32:34;;;;;;;22.50;7.18;;;;;;;;;;4955356;28;20093;-62
2023/06/21 10:35:17;;;;;;;22.05;7.32;;;;;;;;;;4962834;28;20038;-62
2023/06/21 10:38:03;;;;;;;22.65;7.20;;;;;;;;;;4961295;28;20165;-63
2023/06/21 10:40:29;;;;;;;21.00;6.75;;;;;;;;;;4958625;28;20026;-63
2023/06/21 10:42:58;;;;;;;25.13;7.30;;;;;;;;;;4964590;28;20409;-64
2023/06/21 10:45:24;;;;;;;21.70;7.22;;;;;;;;;;4962559;28;20109;-63
2023/06/21 10:47:54;;;;;;;21.52;7.13;;;;;;;;;;4963754;28;20045;-63
2023/06/21 10:50:21;;;;;;;26.73;8.13;;;;;;;;;;4960743;28;20547;-65
2023/06/21 10:52:48;;;;;;;23.95;7.30;;;;;;;;;;4964248;28;20089;-62
2023/06/21 10:55:14;;;;;;;22.75;7.25;;;;;;;;;;4959060;28;20563;-63
2023/06/21 10:57:41;;;;;;;22.65;7.43;;;;;;;;;;4964834;28;20022;-62
2023/06/21 11:00:09;;;;;;;25.40;7.43;;;;;;;;;;4963762;28;20025;-62
2023/06/21 11:02:35;;;;;;;22.13;6.85;;;;;;;;;;4962612;28;20030;-63
2023/06/21 11:05:15;;;;;;;21.60;7.38;;;;;;;;;;4965053;28;20053;-63
2023/06/21 11:07:53;;;;;;;22.42;7.32;;;;;;;;;;4965117;28;20138;-62
2023/06/21 11:10:38;;;;;;;23.05;7.15;;;;;;;;;;4961962;28;20038;-62
2023/06/21 11:13:04;;;;;;;21.95;6.75;;;;;;;;;;4965059;28;20117;-62
2023/06/21 11:15:32;;;;;;;22.35;7.15;;;;;;;;;;4961145;28;20080;-62
2023/06/21 11:18:02;;;;;;;17.13;6.55;;;;;;;;;;4964134;28;20042;-62
2023/06/21 11:20:31;;;;;;;22.08;7.07;;;;;;;;;;4959724;28;20027;-63
2023/06/21 11:23:01;;;;;;;21.83;7.00;;;;;;;;;;4961196;28;20491;-63
2023/06/21 11:25:28;;;;;;;26.05;7.85;;;;;;;;;;4958882;28;20038;-63
2023/06/21 11:28:14;;;;;;;24.20;7.20;;;;;;;;;;4946713;28;20384;-62
2023/06/21 11:31:04;;;;;;;21.50;7.05;;;;;;;;;;4933246;28;20050;-63
2023/06/21 11:33:32;;;;;;;23.40;7.47;;;;;;;;;;4958891;28;20049;-63
2023/06/21 11:36:08;;;;;;;25.63;7.50;;;;;;;;;;4962626;28;20054;-63
2023/06/21 11:38:35;;;;;;;19.63;6.40;;;;;;;;;;4961578;28;20035;-63
2023/06/21 11:41:02;;;;;;;22.20;7.03;;;;;;;;;;4962827;28;20031;-61
2023/06/21 11:43:28;;;;;;;20.95;6.63;;;;;;;;;;4958302;28;20038;-62
2023/06/21 11:45:57;;;;;;;21.13;7.10;;;;;;;;;;4961849;28;20034;-61
2023/06/21 11:48:27;;;;;;;26.55;7.15;;;;;;;;;;4958231;28;20042;-63
2023/06/21 11:50:55;;;;;;;21.65;7.13;;;;;;;;;;4963055;28;20497;-62
2023/06/21 11:53:29;;;;;;;20.10;6.25;;;;;;;;;;4959366;28;20068;-62
2023/06/21 11:55:57;;;;;;;23.30;6.68;;;;;;;;;;4959250;28;20551;-62
2023/06/21 11:58:24;;;;;;;19.10;6.45;;;;;;;;;;4960504;28;20026;-62
2023/06/21 12:00:50;;;;;;;22.00;6.60;;;;;;;;;;4961149;28;21095;-62
2023/06/21 12:03:17;;;;;;;21.13;6.97;;;;;;;;;;4955747;28;20177;-63
2023/06/21 12:05:48;;;;;;;21.08;6.18;;;;;;;;;;4961300;28;20424;-62
2023/06/21 12:08:14;;;;;;;21.65;6.30;;;;;;;;;;4957034;28;20476;-62
2023/06/21 12:10:41;;;;;;;21.30;6.72;;;;;;;;;;4960811;28;20038;-62
2023/06/21 12:13:07;;;;;;;21.92;6.32;;;;;;;;;;4962995;28;20034;-62
2023/06/21 12:15:33;;;;;;;21.02;5.93;;;;;;;;;;4958459;28;20475;-62
2023/06/21 12:17:59;;;;;;;24.67;6.80;;;;;;;;;;4960964;28;20027;-62
2023/06/21 12:20:25;;;;;;;16.65;6.18;;;;;;;;;;4955924;28;20532;-62
2023/06/21 12:22:52;;;;;;;20.13;6.60;;;;;;;;;;4960746;28;20026;-62
2023/06/21 12:25:19;;;;;;;19.48;6.55;;;;;;;;;;4958535;28;20049;-62
2023/06/21 12:27:52;;;;;;;22.52;6.72;;;;;;;;;;4959187;28;20139;-63
2023/06/21 12:30:18;;;;;;;18.52;6.00;;;;;;;;;;4961085;28;20674;-63
2023/06/21 12:32:46;;;;;;;21.20;6.03;;;;;;;;;;4963808;28;20336;-63
2023/06/21 12:35:12;;;;;;;23.90;6.43;;;;;;;;;;4945000;28;20068;-63
2023/06/21 12:37:42;;;;;;;26.65;6.43;;;;;;;;;;4964397;28;20473;-63
2023/06/21 12:40:08;;;;;;;19.40;6.47;;;;;;;;;;4962218;28;20487;-63
2023/06/21 12:42:34;;;;;;;19.13;6.13;;;;;;;;;;4943791;28;20060;-62
2023/06/21 12:45:00;;;;;;;19.67;5.97;;;;;;;;;;4963375;28;20031;-62
2023/06/21 12:47:26;;;;;;;19.00;5.80;;;;;;;;;;4959407;28;20061;-62
2023/06/21 12:50:00;;;;;;;20.48;5.30;;;;;;;;;;4962008;28;20153;-62
2023/06/21 12:52:28;;;;;;;22.13;6.43;;;;;;;;;;4959144;28;20718;-62
2023/06/21 12:54:55;;;;;;;20.95;6.28;;;;;;;;;;4945774;28;20081;-62
2023/06/21 12:57:25;;;;;;;23.52;6.15;;;;;;;;;;4956938;28;20134;-63
2023/06/21 12:59:51;;;;;;;25.15;6.22;;;;;;;;;;4961346;28;20699;-62
2023/06/21 13:02:18;;;;;;;25.88;5.82;;;;;;;;;;4958723;28;20039;-63
2023/06/21 13:04:47;;;;;;;22.17;6.47;;;;;;;;;;4961431;28;20034;-64
2023/06/21 13:07:13;;;;;;;24.80;5.90;;;;;;;;;;4957947;28;20037;-64
2023/06/21 13:09:39;;;;;;;26.88;6.15;;;;;;;;;;4961905;28;20046;-65
2023/06/21 13:12:06;;;;;;;20.92;6.60;;;;;;;;;;4961263;28;20030;-65
2023/06/21 13:14:32;;;;;;;29.90;6.18;;;;;;;;;;4956624;28;20788;-65
2023/06/21 13:16:58;;;;;;;24.02;6.10;;;;;;;;;;4961826;28;20470;-66
2023/06/21 13:19:25;;;;;;;18.02;5.40;;;;;;;;;;4954268;28;20042;-64
2023/06/21 13:21:51;;;;;;;24.33;6.28;;;;;;;;;;4960369;28;20613;-64
2023/06/21 13:24:18;;;;;;;22.40;6.43;;;;;;;;;;4959138;28;20055;-65
2023/06/21 13:26:44;;;;;;;24.67;5.85;;;;;;;;;;4962003;28;20030;-65
2023/06/21 13:29:10;;;;;;;29.05;6.40;;;;;;;;;;4957453;28;20639;-65
2023/06/21 13:31:36;;;;;;;21.00;5.80;;;;;;;;;;4963175;28;20046;-63
2023/06/21 13:34:02;;;;;;;27.52;6.65;;;;;;;;;;4966971;28;20437;-63
2023/06/21 13:36:29;;;;;;;24.25;6.45;;;;;;;;;;4958673;28;21128;-65
2023/06/21 13:38:55;;;;;;;25.45;5.70;;;;;;;;;;4964968;28;20031;-63
2023/06/21 13:41:21;;;;;;;24.20;6.43;;;;;;;;;;4960195;28;20432;-63
2023/06/21 13:43:47;;;;;;;25.20;6.50;;;;;;;;;;4965396;28;20100;-64
2023/06/21 13:46:14;;;;;;;20.40;6.00;;;;;;;;;;4959372;28;20034;-65
2023/06/21 13:48:40;;;;;;;21.23;5.82;;;;;;;;;;4965488;28;20049;-65
2023/06/21 13:51:06;;;;;;;22.83;5.95;;;;;;;;;;4963776;28;20085;-65
2023/06/21 13:53:32;;;;;;;21.63;5.47;;;;;;;;;;4958372;28;20250;-65
2023/06/21 13:55:58;;;;;;;23.92;5.63;;;;;;;;;;4961755;28;20142;-65
2023/06/21 13:58:26;;;;;;;23.75;5.70;;;;;;;;;;4961377;28;20369;-64
2023/06/21 14:00:52;;;;;;;22.13;6.28;;;;;;;;;;4963877;28;20261;-63
2023/06/21 14:03:18;;;;;;;21.20;5.97;;;;;;;;;;4962525;28;20046;-63
2023/06/21 14:05:44;;;;;;;27.05;6.40;;;;;;;;;;4964436;28;20046;-63
2023/06/21 14:08:10;;;;;;;22.05;5.97;;;;;;;;;;4960946;28;20594;-63
2023/06/21 14:10:37;;;;;;;24.45;5.68;;;;;;;;;;4964892;28;20030;-63
2023/06/21 14:13:03;;;;;;;29.10;6.15;;;;;;;;;;4966047;28;20042;-64
2023/06/21 14:15:29;;;;;;;20.63;5.90;;;;;;;;;;4959889;28;20038;-65
2023/06/21 14:17:57;;;;;;;24.15;6.60;;;;;;;;;;4966204;28;20283;-65
2023/06/21 14:20:23;;;;;;;27.67;5.97;;;;;;;;;;4960350;28;20036;-62
2023/06/21 14:22:50;;;;;;;25.13;6.32;;;;;;;;;;4964141;28;20101;-64
2023/06/21 14:25:16;;;;;;;22.23;5.80;;;;;;;;;;4961627;28;20084;-66
2023/06/21 14:27:42;;;;;;;24.60;6.25;;;;;;;;;;4963953;28;20030;-66
2023/06/21 14:30:09;;;;;;;18.33;5.97;;;;;;;;;;4964157;28;20026;-65
2023/06/21 14:32:35;;;;;;;19.25;5.80;;;;;;;;;;4965276;28;20026;-65